Airfield :







YOU CAN JOIN US ON...

 
LOGIN :

Register | Disclaimer

   EN    FR    IT 

 









Legend :    VFR   Marginal VFR   IFR   Intensive IFR   Very Intensive IFR
Visi :
Ceiling :
>= 8 km
>= 3000ft
5 to 8 km
1000 to 3000 ft
1500m to 5 km
500 to 1000 ft
800 to 1500m
200 to 500 ft
< 800m
< 200 ft
Symbols :   Thunderstorms  Fog  Heavy snow  Heavy precipitations  Wind > 20 kt







- Airport Elevation : 40 ft
- IATA code : YRF


CYCA - Cartwright

CURRENT METAR :
  • 260000Z AUTO VRB03KT 9SM FEW090 13/06 A3014 RMK SLP210

EXPIRED METARs :
  • 252300Z AUTO 08005KT 9SM SCT090 12/08 A3014 RMK SLP208
  • 252213Z AUTO 03003KT 360V110 6SM HZ CLR 14/07 A3013 RMK SLP205
  • 252200Z AUTO 06002KT 9SM CLR 14/08 A3013 RMK SLP205

TAF TAF CYCA
Valid from the 25 at 20:00 until the 26 at 08:00 UTC


251939Z 2520/2608 02006KT P6SM FEW060
FM260300 VRB03KT P6SM BKN040
BECMG 2604/2606 21005KT RMK FCST BASED ON AUTO OBS. NXT FCST BY 260200Z
No reported NOTAMs for that airfield.



MET'MAP, your aeronautical weather chart ! - Copyright ORBIFLY December 2007 - Disclaimer

ORBIFLY MET'MAP TEAM :

Programming & Development : Alexandra Zaïnal
Concept & Development : Baudouin d'Aumeries
Co-Development & Prog : Marc-Olivier Méhu
Technical & hardware support : Manuel Goepfert

Contact : metmap@orbifly.com




SOURCES & CREDITS :

   NOAA